Flight Track Log - Related Links

Times and Time Zones

All times are in EDT time to prevent confusion due to time zone crossing. See the AWI4016 flight status page for this flight to view local times or setup timezone preferences in your user account.

Time Position Orientation Groundspeed Altitude Reporting Facility
EDT Latitude Longitude Course Direction KTS MPH feet Rate Location/Type
Mon 07:23:59 PM 39.8667 -75.2833 360° North 163 188 800  Level Philadelphia TRACON
Mon 07:24:05 PM 39.8667 -75.2833 252° West 172 198 1,100 2,000 Climbing Philadelphia TRACON
Mon 07:25:05 PM 39.8500 -75.3500 252° West 196 226 3,000 1,645 Climbing Philadelphia TRACON
Mon 07:26:09 PM 39.8828 -75.4075 307° West 266 306 4,500 1,854 Climbing New York Center
Mon 07:27:08 PM 39.9503 -75.4392 340° North 282 325 6,800 2,067 Climbing New York Center
Mon 07:28:08 PM 40.0178 -75.4681 342° North 265 305 8,600 2,000 Climbing New York Center
Mon 07:29:08 PM 40.0914 -75.5056 339° North 265 305 10,800 1,850 Climbing New York Center
Mon 07:30:08 PM 40.1653 -75.5378 342° North 265 305 12,300 1,150 Climbing New York Center
Mon 07:31:08 PM 40.2303 -75.5775 335° Northwest 278 320 13,100 400 Climbing New York Center
Mon 07:32:08 PM 40.2894 -75.6606 313° West 292 336 13,100  Level New York Center
Mon 07:33:08 PM 40.3522 -75.7522 312° West 307 353 13,100  Level New York Center
Mon 07:34:08 PM 40.4050 -75.8378 309° West 307 353 13,100  Level New York Center
Mon 07:35:08 PM 40.4619 -75.9183 313° West 307 353 13,100  Level New York Center
Mon 07:36:08 PM 40.5125 -75.9958 311° West 307 353 13,100  Level New York Center
Mon 07:37:08 PM 40.5711 -76.0878 310° West 302 348 13,100  Level New York Center
Mon 07:38:08 PM 40.6297 -76.1744 312° West 302 348 13,100  Level New York Center
Mon 07:39:08 PM 40.6869 -76.2447 317° Northwest 302 348 13,100  Level New York Center
Mon 07:40:08 PM 40.7764 -76.2436 North 290 334 13,100  Level New York Center
Mon 07:41:08 PM 40.8789 -76.2353 North 317 365 13,100  Level New York Center
Mon 07:42:08 PM 40.9731 -76.2292 North 330 380 13,100  Level New York Center
Mon 07:43:08 PM 41.0650 -76.2228 North 330 380 13,100 -50 Level New York Center
Mon 07:44:08 PM 41.1486 -76.2158 North 330 380 13,000 -50 Descending New York Center
Mon 07:45:08 PM 41.2408 -76.2067 North 330 380 13,000  Level New York Center
Mon 07:46:08 PM 41.3392 -76.1981 North 323 372 13,000 50 Level New York Center
Mon 07:47:08 PM 41.4267 -76.1939 North 318 366 13,100  Climbing New York Center
Mon 07:48:08 PM 41.5167 -76.1875 North 318 366 13,000  Descending New York Center
Mon 07:49:08 PM 41.6000 -76.1831 North 324 373 13,100 50 Climbing New York Center
Mon 07:50:08 PM 41.6900 -76.1736 North 324 373 13,100 -50 Level New York Center
Mon 07:51:08 PM 41.7883 -76.1678 North 329 379 13,000 -50 Descending New York Center
Mon 07:52:08 PM 41.8781 -76.1611 North 329 379 13,000  Level New York Center
Mon 07:53:08 PM 41.9678 -76.1544 North 329 379 13,000  Level New York Center
Mon 07:54:08 PM 42.0494 -76.1472 North 329 379 13,000  Level New York Center
Mon 07:55:08 PM 42.1392 -76.1406 North 329 379 13,000  Level New York Center
Mon 07:56:08 PM 42.2269 -76.1336 North 329 379 13,000  Level New York Center
Mon 07:57:08 PM 42.3278 -76.1167 North 329 379 13,000 -304 Level New York Center
Mon 07:58:26 PM 42.4350 -76.1089 North 320 368 12,300 -692 Descending Boston Center
Mon 07:59:44 PM 42.5481 -76.0928 North 316 364 11,200 -1,139 Descending Boston Center
Mon 08:00:43 PM 42.6306 -76.0497 21° North 290 334 9,700 -1,333 Descending Boston Center
Mon 08:01:50 PM 42.7075 -75.9950 28° Northeast 284 327 8,400 -1,276 Descending Boston Center
Mon 08:02:50 PM 42.7778 -75.9508 25° Northeast 280 322 7,000 -1,370 Descending Boston Center
Mon 08:03:57 PM 42.8561 -75.9072 22° Northeast 270 311 5,500 -1,355 Descending Boston Center
Mon 08:04:54 PM 42.9253 -75.8997 North 259 298 4,200 -783 Descending Boston Center
Mon 08:05:52 PM 42.9961 -75.9008 359° North 251 289 4,000 -454 Descending Boston Center
Mon 08:06:53 PM 43.0647 -75.8992 North 253 291 3,300 -645 Descending Boston Center
Mon 08:07:53 PM 43.1139 -75.9303 335° Northwest 188 216 2,700 -694 Descending Boston Center
Mon 08:08:54 PM 43.1139 -75.9956 270° West 157 181 1,900 -744 Descending Boston Center
Mon 08:09:54 PM 43.1125 -76.0469 268° West 124 143 1,200 -700 Descending Boston Center

Login

Don't have an account? Register now (free) for customized features, flight alerts, and more!